Station info - map view · info · telemetry · weather · raw · status · beacons · messages · bulletins · browse · moving · my account
Callsign, ship name or locator: Clear       
It is possible to search using wildcards (*?) after a prefix. Example: OH*
APRS station JI6NAR-9 - show graphs
Map loading...
Comment: 439.920MHz T088 -500 kagoshimaJ-net
Mic-E message: In service
Location: 31°34.47' N 130°31.32' E - locator PM51GN27PV - show map - static map
2.3 miles Northwest bearing 295° from Kagoshima-shi, Kagoshima, Japan [?]
7.7 miles East bearing 112° from Ijūin, Kagoshima, Japan
57.8 miles Southwest bearing 247° from Miyazaki-shi, Miyazaki, Japan
Last position: 2018-05-27 04:56:37 EDT (14h41m ago)
2018-05-27 17:56:37 JST local time at Kagoshima-shi, Japan [?]
Altitude: 46 ft
Course: 300°
Device: Yaesu: FTM-400DR (rig)
Last path: JI6NAR-9>S1STT7 via WIDE1-1,qAR,JG6YCH-10 (good)
Positions stored: 32802
Packet rate: 34 seconds between packets on average during 1679 seconds.
Other SSIDs: JI6NAR-5 JI6NAR-7
Stations near current position of JI6NAR-9 - show more
callsign distance last heard - EDT      callsign distance last heard - EDT
JH6FUP-100.6 miles 185°2018-05-27 03:56:08 JA6QAR-90.7 miles 5°2018-05-27 18:20:25
JI6NAR-70.9 miles 76°2018-05-25 06:11:48 JA6KJQ-51.4 miles 204°2018-05-26 08:14:45
JJ6VYE-92.0 miles 63°2018-05-09 20:36:39 JO6XEA-92.2 miles 280°2018-05-27 12:15:58
JO6XEA-72.2 miles 280°2018-05-16 12:53:08 JF6YRL-92.4 miles 208°2018-05-24 23:22:17
ja6jf2.4 miles 86°2018-05-27 19:36:49 JA6UCB-92.4 miles 74°2018-05-27 07:56:21
JA6YUN2.5 miles 74°2018-05-26 05:17:42 JE6PCN2.7 miles 210°2018-05-25 10:05:48
JA6WZI-73.2 miles 173°2018-05-27 18:48:23 jo6nzj-53.6 miles 52°2018-05-10 23:58:02
JG6PKO-93.6 miles 24°2018-05-26 23:14:03 JG6MNG-163.9 miles 297°2018-05-06 17:17:38
JG6MNG-133.9 miles 297°2018-05-06 17:29:58 JE6PQJ-i3.9 miles 22°2018-05-09 05:33:41
JH6CGL-94.8 miles 13°2018-05-26 22:33:55 JA6NKA-95.3 miles 32°2018-05-27 03:24:07
Stations which heard JI6NAR-9 directly on radio –
callsign pkts first heard - EDT last heard longest (tx => rx) longest at - EDT
JA6TJY-10 35 2018-05-02 11:18:36 2018-05-03 07:47:16 PM52IJ > PM52JT 26.9 miles 7° 2018-05-03 07:47:16
JH6YEF-2 42 2018-05-02 10:40:28 2018-05-03 08:09:44 PM53GL > PM52EL 70.5 miles 188° 2018-05-03 05:32:21
JG6YCL-2 3 2018-05-02 17:16:33 2018-05-03 02:53:45 PM53IU > PM53GT 11.2 miles 244° 2018-05-03 01:52:52
JG6YCB-2 28 2018-05-02 17:13:03 2018-05-03 03:19:07 PM54RE > PM53KL 59.2 miles 215° 2018-05-02 22:24:00
JG6YDA-2 28 2018-05-02 11:27:57 2018-05-03 06:35:43 PM52IM > PM53HN 70.7 miles 356° 2018-05-02 11:27:57
JF6YFU-2 112 2018-05-02 17:43:11 2018-05-03 01:44:05 PM53JU > PM53TO 48.7 miles 112° 2018-05-03 01:44:05
JG6YDK-2 8 2018-05-03 06:32:12 2018-05-03 07:47:52 PM52IJ > PM53BB 57.0 miles 324° 2018-05-03 07:47:52
JA6ZKZ-2 3 2018-05-03 03:49:24 2018-05-03 05:13:22 PM53FN > PM53EN 4.4 miles 287° 2018-05-03 05:13:22
JA6CFI-10 46 2018-05-02 12:37:22 2018-05-03 02:35:29 PM53GH > PM53IT 36.3 miles 17° 2018-05-02 12:37:22
JG6YDG-2 3 2018-05-02 12:39:07 2018-05-03 06:39:12 PM53GH > PM43WC 43.6 miles 249° 2018-05-02 12:39:07
JG6YEK-10 2 2018-05-02 10:05:48 2018-05-03 08:16:37 PM52JB > PM51MT 22.5 miles 141° 2018-05-03 08:16:37
JF6YLF-10 5 2018-05-02 10:04:38 2018-05-03 08:35:22 PM51IS > PM51MX 24.9 miles 60° 2018-05-02 10:04:38
JG6YDE-10 10 2018-05-03 01:38:03 2018-05-03 01:49:56 PM53JU > PM53KU 4.0 miles 90° 2018-05-03 01:49:56
JF6YQE-10 34 2018-05-02 12:21:37 2018-05-03 03:34:42 PM53HU > PM43XK 50.0 miles 236° 2018-05-03 02:28:09
JG6NQR-10 60 2018-05-03 02:51:33 2018-05-03 05:33:31 PM53GL > PM53FQ 15.4 miles 342° 2018-05-03 05:33:31
JA4FHV-10 80 2018-05-02 17:53:41 2018-05-03 01:31:38 PM54MB > PM53LX 10.5 miles 243° 2018-05-02 20:48:32
JG6YEY-10 4 2018-05-02 11:26:08 2018-05-02 12:08:47 PM52IO > PM42XU 45.4 miles 292° 2018-05-02 11:33:47
JF6YGN-2 1 2018-05-02 12:05:17 2018-05-02 12:05:17 PM52HW > PM52AU 36.3 miles 258° 2018-05-02 12:05:17
JI6FPP-10 74 2018-05-02 12:19:17 2018-05-03 06:32:47 PM53GC > PM53GK 25.0 miles 2° 2018-05-02 12:19:17
JI6XTW-10 1 2018-05-20 03:36:48 2018-05-20 03:36:48 PM51GN > PM51KK 20.5 miles 118° 2018-05-20 03:36:48
JG6YFP-10 29 2018-05-02 11:48:22 2018-05-03 07:15:07 PM52HX > PM52MV 23.3 miles 106° 2018-05-02 12:08:12
JG6YHI-2 5 2018-05-02 17:10:44 2018-05-03 02:31:44 PM53FQ > PM53JV 22.4 miles 50° 2018-05-02 17:10:44
JH6ETS-10 10 2018-05-02 17:43:46 2018-05-03 01:25:32 PM54OB > PM53LQ 27.2 miles 206° 2018-05-02 23:42:24
JE6KYC-2 7 2018-05-02 12:18:07 2018-05-03 06:43:56 PM53GB > PM53FH 18.0 miles 348° 2018-05-02 12:18:07
JF6YCQ-2 15 2018-05-02 17:36:03 2018-05-03 01:35:43 PM54LA > PM53KU 13.0 miles 218° 2018-05-02 20:33:53
JG6YIC-2 23 2018-05-02 10:10:28 2018-05-27 04:12:48 PM52JB > PM51DJ 56.7 miles 214° 2018-05-02 10:32:55
JG6YIN-10 26 2018-05-02 16:58:20 2018-05-03 05:39:21 PM53GJ > PM53FN 11.0 miles 335° 2018-05-03 05:39:21
JG6YCH-10 289 2018-05-02 09:18:42 2018-05-27 04:56:37 PM51DP > PM51HP 17.0 miles 90° 2018-05-27 02:11:35
JH6YMX-2 44 2018-05-02 09:21:40 2018-05-27 04:55:59 PM51IR > PM51FR 14.9 miles 264° 2018-05-03 08:44:08
JE6NHI-10 3 2018-05-02 09:56:28 2018-05-03 08:49:57 PM51HR > PM51JS 9.8 miles 80° 2018-05-03 08:49:57
JE6OGJ-2 4 2018-05-02 09:49:24 2018-05-02 10:03:29 PM51GQ > PM51JQ 15.3 miles 97° 2018-05-02 09:49:24
JA4RZE-1 1 2018-05-02 23:36:08 2018-05-02 23:36:08 PM54OB > PM54OB 0.8 miles 66° 2018-05-02 23:36:08
JG6YBZ-2 20 2018-05-02 09:54:04 2018-05-27 03:58:17 PM52JB > PM51KO 33.1 miles 175° 2018-05-03 08:16:38

Only position packets which were originated by the station are shown here. The range statistics show some extra long hops, because some digipeaters do not correctly add themselves to the digipeater path. Please check the raw packets.
About this site
This page shows real-time information collected from the Automatic Position Reporting System Internet network (APRS-IS). APRS is used by amateur (ham) radio operators to transmit real-time position information, weather data, telemetry and messages over the radio. A vehicle equipped with a GPS receiver, a VHF transmitter or HF transceiver and a small computer device called a tracker transmits it's location, speed and course in a small data packet, which is then received by a nearby iGate receiving site which forwards the packet on the Internet. Systems connected to the Internet can send information on the APRS-IS without a radio transmitter, or collect and display information transmitted anywhere in the world.
FAQ · Blog · Discussion group · Linking to aprs.fi · AIS sites · Service status · Database statistics · Advertising on aprs.fi · Technical details · API · Change log · Planned changes · Credits and thanks · Terms Of Service · iPhone/iPad APRS